HISTORICAL SENSOR DATA

Sensor Data Report

DB LIVE
CURRENT TIME--:--:--
DEVICE NETWORK Gateway Status
13 ESP · realtime ~1s · history 60s
Weather WS-MOD-01
ONLINE
Actuator ACT-MOD-01
OFFLINE
Mainboard L3 MB-L3-01
ONLINE
Mainboard L5 MB-L5-01
ONLINE
Remote AC AC-REMOTE-01
ONLINE
PZEM L3-01 PWR-L3-01
OFFLINE
PZEM L3-02 PWR-L3-02
OFFLINE
PZEM L3-03 PWR-L3-03
OFFLINE
PZEM L3-04 PWR-L3-04
OFFLINE
PZEM L5-01 PWR-L5-01
ONLINE
PZEM L5-02 PWR-L5-02
ONLINE
PZEM L5-03 PWR-L5-03
OFFLINE
PZEM L5-04 PWR-L5-04
OFFLINE
REPORT FILTER

Periode & Sensor

DATABASE HISTORY
RESET
QUICK RANGE Hari ini 7 hari 30 hari
PERIODE07 Sep 2026sampai 07 Sep 2026
TOTAL DATA26,094sensor readings
MINIMUM0.00sesuai filter
AVERAGE37.77sesuai filter
MAXIMUM912.00sesuai filter
REPORT RESULT

Data Sensor

07/09/2026 — 07/09/2026 EXPORT CSV
NOTANGGALWAKTUDEVICECHANNELSENSORVALUEUNIT
701 07/09/2026 06:16:00 MB-L3-01Mainboard Lantai 3 L3-RAD-01 Radiation 1 1.00 W/m²
702 07/09/2026 06:16:00 MB-L5-01Mainboard Lantai 5 L5-ST-01 Surface Temperature 1 22.70 °C
703 07/09/2026 06:16:00 MB-L3-01Mainboard Lantai 3 L3-SHT-02-RH SHT20 2 Humidity 46.60 %RH
704 07/09/2026 06:16:00 AC-REMOTE-01Remote AC AC-MODE AC Operating Mode 1.00 code
705 07/09/2026 06:16:00 MB-L5-01Mainboard Lantai 5 L5-SHT-03-RH SHT20 3 Humidity 47.10 %RH
706 07/09/2026 06:16:00 MB-L3-01Mainboard Lantai 3 L3-SHT-01-T SHT20 1 Temperature 27.80 °C
707 07/09/2026 06:16:00 MB-L5-01Mainboard Lantai 5 L5-LUX-06 Illuminance / LUX 6 204.30 lux
708 07/09/2026 06:16:00 MB-L5-01Mainboard Lantai 5 L5-SHT-02-T SHT20 2 Temperature 28.10 °C
709 07/09/2026 06:16:00 MB-L3-01Mainboard Lantai 3 L3-AI-04 Analog Input 4 3.12 V
710 07/09/2026 06:16:00 PWR-L5-01Power Meter L5 PZEM 01 PZEM-L5-01-FREQ PZEM L5-01 Frequency 50.00 Hz
711 07/09/2026 06:16:00 MB-L5-01Mainboard Lantai 5 L5-AI-06 Analog Input 6 3.05 V
712 07/09/2026 06:16:00 MB-L3-01Mainboard Lantai 3 L3-AI-01 Analog Input 1 3.12 V
713 07/09/2026 06:16:00 MB-L5-01Mainboard Lantai 5 L5-AI-03 Analog Input 3 3.05 V
714 07/09/2026 06:16:00 WS-MOD-01Weather Station Module WS-RH Kelembapan Udara 79.70 %RH
715 07/09/2026 06:16:00 MB-L3-01Mainboard Lantai 3 L3-LUX-06 Illuminance / LUX 6 343.50 lux
716 07/09/2026 06:16:00 PWR-L5-01Power Meter L5 PZEM 01 PZEM-L5-01-POWER PZEM L5-01 Active Power 10.10 W
717 07/09/2026 06:16:00 MB-L5-01Mainboard Lantai 5 L5-LUX-02 Illuminance / LUX 2 608.70 lux
718 07/09/2026 06:16:00 PWR-L5-02Power Meter L5 PZEM 02 PZEM-L5-02-PF PZEM L5-02 Power Factor 0.00
719 07/09/2026 06:16:00 MB-L5-01Mainboard Lantai 5 L5-BGT-02 Black Globe Temperature 2 25.90 °C
720 07/09/2026 06:16:00 PWR-L5-02Power Meter L5 PZEM 02 PZEM-L5-02-POWER PZEM L5-02 Active Power 0.00 W
721 07/09/2026 06:16:00 MB-L3-01Mainboard Lantai 3 L3-LUX-04 Illuminance / LUX 4 108.60 lux
722 07/09/2026 06:16:00 MB-L5-01Mainboard Lantai 5 L5-HFT-01 Heat Flow Temperature 1 22.60 °C
723 07/09/2026 06:16:00 MB-L3-01Mainboard Lantai 3 L3-LUX-01 Illuminance / LUX 1 108.80 lux
724 07/09/2026 06:16:00 MB-L5-01Mainboard Lantai 5 L5-RAD-02 Radiation 2 1.00 W/m²
725 07/09/2026 06:16:00 MB-L3-01Mainboard Lantai 3 L3-SHT-03-RH SHT20 3 Humidity 46.40 %RH
726 07/09/2026 06:16:00 PWR-L5-01Power Meter L5 PZEM 01 PZEM-L5-01-VOLT PZEM L5-01 Voltage 223.70 V
727 07/09/2026 06:16:00 MB-L5-01Mainboard Lantai 5 L5-SHT-03-T SHT20 3 Temperature 28.00 °C
728 07/09/2026 06:16:00 MB-L3-01Mainboard Lantai 3 L3-SHT-02-T SHT20 2 Temperature 28.00 °C
729 07/09/2026 06:16:00 AC-REMOTE-01Remote AC AC-SETPOINT AC Set Temperature 23.00 °C
730 07/09/2026 06:16:00 MB-L5-01Mainboard Lantai 5 L5-SHT-01-RH SHT20 1 Humidity 47.40 %RH
731 07/09/2026 06:16:00 MB-L3-01Mainboard Lantai 3 L3-AI-06 Analog Input 6 3.12 V
732 07/09/2026 06:16:00 MB-L5-01Mainboard Lantai 5 L5-AI-05 Analog Input 5 3.05 V
733 07/09/2026 06:16:00 MB-L3-01Mainboard Lantai 3 L3-AI-03 Analog Input 3 3.12 V
734 07/09/2026 06:16:00 MB-L5-01Mainboard Lantai 5 L5-AI-02 Analog Input 2 3.05 V
735 07/09/2026 06:16:00 WS-MOD-01Weather Station Module WS-DIR Arah Angin 85.10 °
736 07/09/2026 06:15:00 MB-L3-01Mainboard Lantai 3 L3-SHT-01-RH SHT20 1 Humidity 47.20 %RH
737 07/09/2026 06:15:00 AC-REMOTE-01Remote AC AC-POWER AC Power State 1.00 state
738 07/09/2026 06:15:00 MB-L5-01Mainboard Lantai 5 L5-SHT-02-RH SHT20 2 Humidity 46.50 %RH
739 07/09/2026 06:15:00 MB-L3-01Mainboard Lantai 3 L3-AI-05 Analog Input 5 3.12 V
740 07/09/2026 06:15:00 MB-L5-01Mainboard Lantai 5 L5-SHT-01-T SHT20 1 Temperature 27.80 °C
741 07/09/2026 06:15:00 PWR-L5-01Power Meter L5 PZEM 01 PZEM-L5-01-CURR PZEM L5-01 Current 0.12 A
742 07/09/2026 06:15:00 MB-L3-01Mainboard Lantai 3 L3-AI-02 Analog Input 2 3.12 V
743 07/09/2026 06:15:00 MB-L5-01Mainboard Lantai 5 L5-AI-04 Analog Input 4 3.05 V
744 07/09/2026 06:15:00 WS-MOD-01Weather Station Module WS-PRES Tekanan Udara 911.00 hPa
745 07/09/2026 06:15:00 MB-L5-01Mainboard Lantai 5 L5-AI-01 Analog Input 1 3.05 V
746 07/09/2026 06:15:00 WS-MOD-01Weather Station Module WS-WIND Kecepatan Angin 6.83 m/s
747 07/09/2026 06:15:00 MB-L5-01Mainboard Lantai 5 L5-LUX-03 Illuminance / LUX 3 193.10 lux
748 07/09/2026 06:15:00 MB-L5-01Mainboard Lantai 5 L5-BGT-03 Black Globe Temperature 3 25.70 °C
749 07/09/2026 06:15:00 PWR-L5-02Power Meter L5 PZEM 02 PZEM-L5-02-ENERGY PZEM L5-02 Energy 0.04 kWh
750 07/09/2026 06:15:00 MB-L3-01Mainboard Lantai 3 L3-LUX-02 Illuminance / LUX 2 169.60 lux
751 07/09/2026 06:15:00 MB-L5-01Mainboard Lantai 5 L5-HFT-02 Heat Flow Temperature 2 21.90 °C
752 07/09/2026 06:15:00 PWR-L5-02Power Meter L5 PZEM 02 PZEM-L5-02-VOLT PZEM L5-02 Voltage 223.70 V
753 07/09/2026 06:15:00 MB-L3-01Mainboard Lantai 3 L3-RAD-01 Radiation 1 1.00 W/m²
754 07/09/2026 06:15:00 MB-L5-01Mainboard Lantai 5 L5-ST-01 Surface Temperature 1 22.70 °C
755 07/09/2026 06:15:00 MB-L3-01Mainboard Lantai 3 L3-SHT-02-RH SHT20 2 Humidity 46.60 %RH
756 07/09/2026 06:15:00 AC-REMOTE-01Remote AC AC-MODE AC Operating Mode 1.00 code
757 07/09/2026 06:15:00 MB-L5-01Mainboard Lantai 5 L5-SHT-03-RH SHT20 3 Humidity 47.10 %RH
758 07/09/2026 06:15:00 MB-L3-01Mainboard Lantai 3 L3-SHT-01-T SHT20 1 Temperature 27.80 °C
759 07/09/2026 06:15:00 MB-L5-01Mainboard Lantai 5 L5-LUX-06 Illuminance / LUX 6 196.20 lux
760 07/09/2026 06:15:00 MB-L5-01Mainboard Lantai 5 L5-SHT-02-T SHT20 2 Temperature 28.20 °C
761 07/09/2026 06:15:00 MB-L3-01Mainboard Lantai 3 L3-AI-04 Analog Input 4 3.12 V
762 07/09/2026 06:15:00 PWR-L5-01Power Meter L5 PZEM 01 PZEM-L5-01-FREQ PZEM L5-01 Frequency 50.00 Hz
763 07/09/2026 06:15:00 MB-L5-01Mainboard Lantai 5 L5-AI-06 Analog Input 6 3.05 V
764 07/09/2026 06:15:00 MB-L3-01Mainboard Lantai 3 L3-AI-01 Analog Input 1 3.12 V
765 07/09/2026 06:15:00 MB-L5-01Mainboard Lantai 5 L5-AI-03 Analog Input 3 3.05 V
766 07/09/2026 06:15:00 WS-MOD-01Weather Station Module WS-RH Kelembapan Udara 79.90 %RH
767 07/09/2026 06:15:00 MB-L3-01Mainboard Lantai 3 L3-LUX-06 Illuminance / LUX 6 331.60 lux
768 07/09/2026 06:15:00 PWR-L5-01Power Meter L5 PZEM 01 PZEM-L5-01-POWER PZEM L5-01 Active Power 10.80 W
769 07/09/2026 06:15:00 MB-L5-01Mainboard Lantai 5 L5-LUX-02 Illuminance / LUX 2 583.80 lux
770 07/09/2026 06:15:00 PWR-L5-02Power Meter L5 PZEM 02 PZEM-L5-02-PF PZEM L5-02 Power Factor 0.00
771 07/09/2026 06:15:00 MB-L5-01Mainboard Lantai 5 L5-BGT-02 Black Globe Temperature 2 25.80 °C
772 07/09/2026 06:15:00 PWR-L5-02Power Meter L5 PZEM 02 PZEM-L5-02-POWER PZEM L5-02 Active Power 0.00 W
773 07/09/2026 06:15:00 MB-L3-01Mainboard Lantai 3 L3-LUX-04 Illuminance / LUX 4 103.70 lux
774 07/09/2026 06:15:00 MB-L5-01Mainboard Lantai 5 L5-HFT-01 Heat Flow Temperature 1 22.50 °C
775 07/09/2026 06:15:00 MB-L3-01Mainboard Lantai 3 L3-LUX-01 Illuminance / LUX 1 104.40 lux
776 07/09/2026 06:15:00 MB-L5-01Mainboard Lantai 5 L5-RAD-02 Radiation 2 1.00 W/m²
777 07/09/2026 06:15:00 MB-L3-01Mainboard Lantai 3 L3-SHT-03-RH SHT20 3 Humidity 46.30 %RH
778 07/09/2026 06:15:00 PWR-L5-01Power Meter L5 PZEM 01 PZEM-L5-01-VOLT PZEM L5-01 Voltage 223.70 V
779 07/09/2026 06:15:00 MB-L5-01Mainboard Lantai 5 L5-SHT-03-T SHT20 3 Temperature 28.00 °C
780 07/09/2026 06:15:00 MB-L3-01Mainboard Lantai 3 L3-SHT-02-T SHT20 2 Temperature 28.00 °C
781 07/09/2026 06:15:00 AC-REMOTE-01Remote AC AC-SETPOINT AC Set Temperature 23.00 °C
782 07/09/2026 06:15:00 MB-L5-01Mainboard Lantai 5 L5-SHT-01-RH SHT20 1 Humidity 47.50 %RH
783 07/09/2026 06:15:00 MB-L3-01Mainboard Lantai 3 L3-AI-06 Analog Input 6 3.12 V
784 07/09/2026 06:15:00 MB-L5-01Mainboard Lantai 5 L5-AI-05 Analog Input 5 3.05 V
785 07/09/2026 06:15:00 MB-L3-01Mainboard Lantai 3 L3-AI-03 Analog Input 3 3.12 V
786 07/09/2026 06:15:00 MB-L5-01Mainboard Lantai 5 L5-AI-02 Analog Input 2 3.05 V
787 07/09/2026 06:15:00 WS-MOD-01Weather Station Module WS-DIR Arah Angin 100.80 °
788 07/09/2026 06:15:00 MB-L3-01Mainboard Lantai 3 L3-LUX-05 Illuminance / LUX 5 598.80 lux
789 07/09/2026 06:15:00 WS-MOD-01Weather Station Module WS-TEMP Suhu Udara 18.60 °C
790 07/09/2026 06:15:00 PWR-L5-01Power Meter L5 PZEM 01 PZEM-L5-01-PF PZEM L5-01 Power Factor 0.39
791 07/09/2026 06:15:00 MB-L5-01Mainboard Lantai 5 L5-LUX-04 Illuminance / LUX 4 112.00 lux
792 07/09/2026 06:15:00 PWR-L5-02Power Meter L5 PZEM 02 PZEM-L5-02-FREQ PZEM L5-02 Frequency 50.00 Hz
793 07/09/2026 06:15:00 MB-L5-01Mainboard Lantai 5 L5-LUX-01 Illuminance / LUX 1 128.20 lux
794 07/09/2026 06:15:00 PWR-L5-02Power Meter L5 PZEM 02 PZEM-L5-02-CURR PZEM L5-02 Current 0.00 A
795 07/09/2026 06:15:00 MB-L3-01Mainboard Lantai 3 L3-LUX-03 Illuminance / LUX 3 189.70 lux
796 07/09/2026 06:15:00 MB-L5-01Mainboard Lantai 5 L5-BGT-01 Black Globe Temperature 1 25.90 °C
797 07/09/2026 06:15:00 MB-L3-01Mainboard Lantai 3 L3-RAD-02 Radiation 2 1.00 W/m²
798 07/09/2026 06:15:00 MB-L5-01Mainboard Lantai 5 L5-ST-02 Surface Temperature 2 22.20 °C
799 07/09/2026 06:15:00 PWR-L5-01Power Meter L5 PZEM 01 PZEM-L5-01-ENERGY PZEM L5-01 Energy 0.13 kWh
800 07/09/2026 06:15:00 MB-L3-01Mainboard Lantai 3 L3-SHT-03-T SHT20 3 Temperature 28.20 °C
Menampilkan maksimal 100 data per halaman